createdAt,value
2023-03-03T06:06:25.691Z,22.63
2023-03-03T06:09:03.288Z,21.80
2023-03-03T06:11:32.632Z,25.08
2023-03-03T06:14:00.372Z,25.88
2023-03-03T06:16:27.313Z,26.20
2023-03-03T06:18:54.817Z,22.83
2023-03-03T06:21:39.298Z,24.48
2023-03-03T06:24:12.913Z,23.75
2023-03-03T06:26:43.220Z,24.67
2023-03-03T06:29:19.422Z,23.85
2023-03-03T06:31:47.191Z,21.67
2023-03-03T06:34:49.730Z,24.75
2023-03-03T06:37:29.135Z,21.75
2023-03-03T06:40:21.632Z,22.10
2023-03-03T06:42:51.703Z,22.63
2023-03-03T06:45:20.220Z,22.20
2023-03-03T06:47:47.361Z,22.38
2023-03-03T06:50:21.249Z,21.95
2023-03-03T06:52:48.511Z,22.80
2023-03-03T06:55:24.658Z,20.75
2023-03-03T06:58:12.274Z,23.92
2023-03-03T07:00:48.056Z,24.60
2023-03-03T07:03:32.558Z,22.92
2023-03-03T07:06:43.947Z,20.17
2023-03-03T07:09:21.914Z,19.63
2023-03-03T07:11:48.561Z,20.45
2023-03-03T07:14:19.187Z,20.42
2023-03-03T07:16:46.346Z,21.23
2023-03-03T07:19:33.276Z,24.67
2023-03-03T07:22:12.562Z,22.98
2023-03-03T07:27:11.823Z,20.25
2023-03-03T07:29:41.594Z,24.10
2023-03-03T07:32:22.802Z,23.38
2023-03-03T07:34:53.751Z,22.15
2023-03-03T07:37:34.935Z,26.00
2023-03-03T07:40:27.315Z,26.10
2023-03-03T07:42:54.078Z,27.50
2023-03-03T07:45:36.920Z,24.25
2023-03-03T07:48:25.234Z,22.25
2023-03-03T07:50:52.337Z,24.15
2023-03-03T07:53:35.094Z,21.42
2023-03-03T07:56:02.297Z,22.95
2023-03-03T07:58:40.730Z,22.60
2023-03-03T08:01:28.192Z,19.02
2023-03-03T08:03:56.716Z,21.60
2023-03-03T08:06:35.530Z,21.50
2023-03-03T08:09:11.535Z,21.02
2023-03-03T08:11:49.831Z,20.85
2023-03-03T08:14:26.427Z,21.45
2023-03-03T08:16:53.277Z,23.27
2023-03-03T08:19:20.125Z,22.02
2023-03-03T08:21:46.824Z,22.83
2023-03-03T08:24:13.646Z,22.77
2023-03-03T08:26:40.414Z,23.10
2023-03-03T08:29:07.303Z,21.48
2023-03-03T08:31:41.226Z,19.38
2023-03-03T08:34:09.303Z,15.40
2023-03-03T08:36:35.838Z,18.10
2023-03-03T08:39:04.910Z,16.90
2023-03-03T08:41:31.560Z,17.00
2023-03-03T08:43:58.343Z,16.88
2023-03-03T08:46:25.022Z,16.50
2023-03-03T08:48:53.033Z,17.00
2023-03-03T08:51:19.830Z,18.77
2023-03-03T08:53:47.253Z,17.88
2023-03-03T08:56:15.168Z,16.52
2023-03-03T08:59:03.200Z,15.75
2023-03-03T09:01:32.519Z,17.27
2023-03-03T09:03:59.930Z,17.20
2023-03-03T09:06:26.615Z,18.00
2023-03-03T09:08:55.098Z,17.20
2023-03-03T09:11:27.592Z,15.82
2023-03-03T09:14:02.863Z,16.88
2023-03-03T09:16:37.192Z,16.80
2023-03-03T09:19:19.945Z,18.98
2023-03-03T09:21:46.759Z,15.68
2023-03-03T09:24:27.956Z,16.30
2023-03-03T09:26:55.520Z,17.10
2023-03-03T09:29:30.911Z,18.73
2023-03-03T09:32:01.019Z,16.80
2023-03-03T09:34:41.641Z,17.73
2023-03-03T09:37:23.515Z,16.73
2023-03-03T09:39:56.698Z,17.23
2023-03-03T09:42:38.850Z,17.48
2023-03-03T09:45:36.190Z,17.77
2023-03-03T09:48:48.298Z,16.08
2023-03-03T09:51:33.501Z,15.82
2023-03-03T09:54:12.625Z,15.18
2023-03-03T09:56:44.576Z,17.20
2023-03-03T09:59:39.272Z,16.48
2023-03-03T10:02:24.101Z,18.13
2023-03-03T10:05:05.774Z,15.80
2023-03-03T10:07:47.533Z,15.45
2023-03-03T10:10:36.569Z,17.33
2023-03-03T10:13:13.495Z,18.50
2023-03-03T10:16:04.103Z,15.52
2023-03-03T10:18:37.419Z,15.10
2023-03-03T10:21:11.794Z,16.55
2023-03-03T10:24:05.072Z,16.65
2023-03-03T10:27:12.650Z,14.77
2023-03-03T10:30:08.333Z,15.70
2023-03-03T10:32:49.481Z,16.42
2023-03-03T10:36:07.304Z,14.55
2023-03-03T10:38:58.725Z,13.52
2023-03-03T10:41:31.337Z,13.48
2023-03-03T10:44:03.184Z,15.30
2023-03-03T10:46:46.249Z,16.15
2023-03-03T10:49:43.728Z,14.93
2023-03-03T10:52:20.014Z,13.73
2023-03-03T10:55:12.015Z,15.07
2023-03-03T10:58:03.133Z,15.65
2023-03-03T11:00:42.413Z,17.27
2023-03-03T11:03:33.330Z,16.85
2023-03-03T11:06:05.481Z,15.73
2023-03-03T11:08:46.089Z,18.95
2023-03-03T11:11:41.517Z,15.80
2023-03-03T11:14:27.697Z,20.05
2023-03-03T11:17:21.736Z,19.73
2023-03-03T11:20:07.076Z,19.00
2023-03-03T11:23:16.942Z,20.15
2023-03-03T11:25:55.977Z,18.50
2023-03-03T11:28:45.663Z,19.30
2023-03-03T11:31:21.328Z,20.13
2023-03-03T11:34:05.316Z,18.95
2023-03-03T11:36:58.011Z,19.70
2023-03-03T11:39:27.617Z,21.10
2023-03-03T11:42:07.106Z,21.20
2023-03-03T11:44:40.746Z,24.88
2023-03-03T11:47:42.520Z,19.00
2023-03-03T11:50:21.129Z,20.02
2023-03-03T11:53:12.769Z,18.40
2023-03-03T11:55:43.118Z,19.88
2023-03-03T11:58:34.665Z,19.65
2023-03-03T12:01:30.353Z,18.92
2023-03-03T12:04:01.761Z,18.95
2023-03-03T12:06:44.118Z,19.80
2023-03-03T12:09:42.947Z,17.17
2023-03-03T12:12:19.544Z,18.30
2023-03-03T12:15:09.250Z,19.23
2023-03-03T12:20:26.019Z,16.27
2023-03-03T12:26:11.759Z,16.77
2023-03-03T12:28:42.304Z,18.70
2023-03-03T12:31:55.853Z,18.35
2023-03-03T12:35:00.900Z,16.63
2023-03-03T12:37:55.419Z,17.88
2023-03-03T12:40:31.130Z,18.63
2023-03-03T12:43:10.791Z,20.35
2023-03-03T12:45:53.765Z,23.55
2023-03-03T12:48:29.189Z,20.75
2023-03-03T12:51:01.123Z,19.40
2023-03-03T12:53:30.538Z,19.27
2023-03-03T12:58:52.572Z,18.70
2023-03-03T13:01:41.314Z,20.40
2023-03-03T13:04:52.821Z,20.15
2023-03-03T13:07:35.396Z,18.85
2023-03-03T13:10:26.346Z,20.13
2023-03-03T13:13:07.118Z,19.77
2023-03-03T13:15:55.247Z,18.67
2023-03-03T13:18:47.420Z,20.40
2023-03-03T13:21:32.282Z,18.90
2023-03-03T13:24:33.165Z,20.23
2023-03-03T13:27:15.289Z,20.60
2023-03-03T13:30:00.200Z,18.38
2023-03-03T13:32:41.036Z,17.65
2023-03-03T13:35:16.699Z,19.50
2023-03-03T13:37:50.371Z,20.63
2023-03-03T13:40:22.517Z,23.40
2023-03-03T13:43:13.846Z,20.45
2023-03-03T13:46:05.675Z,22.10
2023-03-03T13:48:40.252Z,20.10
2023-03-03T13:51:43.345Z,21.48
2023-03-03T13:54:13.114Z,20.23
2023-03-03T13:56:54.633Z,20.98
2023-03-03T13:59:29.493Z,20.83
2023-03-03T14:01:59.450Z,17.88
2023-03-03T14:07:18.368Z,18.43
2023-03-03T14:09:56.868Z,19.73
2023-03-03T14:12:34.680Z,19.20
2023-03-03T14:15:53.811Z,17.27
2023-03-03T14:18:34.752Z,17.75
2023-03-03T14:21:14.417Z,17.85
2023-03-03T14:24:07.821Z,18.08
2023-03-03T14:26:49.985Z,17.48
2023-03-03T14:29:30.776Z,15.60
2023-03-03T14:32:30.492Z,17.98
2023-03-03T14:35:22.151Z,17.52
2023-03-03T14:37:50.989Z,16.67
2023-03-03T14:40:32.919Z,14.83
2023-03-03T14:43:02.416Z,16.30
2023-03-03T14:45:41.287Z,16.75
2023-03-03T14:48:22.101Z,15.18
2023-03-03T14:50:52.760Z,16.08
2023-03-03T14:53:19.969Z,15.23
2023-03-03T14:55:52.177Z,14.93
2023-03-03T14:58:40.874Z,14.40
2023-03-03T15:01:36.303Z,15.80
2023-03-03T15:04:15.831Z,13.15
2023-03-03T15:06:44.224Z,14.30
2023-03-03T15:09:43.461Z,14.88
2023-03-03T15:12:37.487Z,14.52
2023-03-03T15:15:04.443Z,14.38
2023-03-03T15:17:44.485Z,14.63
2023-03-03T15:20:35.729Z,14.75
2023-03-03T15:23:18.696Z,13.98
2023-03-03T15:26:02.276Z,13.10
2023-03-03T15:28:46.218Z,14.35
2023-03-03T15:31:41.543Z,13.20
2023-03-03T15:34:26.458Z,12.77
2023-03-03T15:37:16.592Z,13.65
2023-03-03T15:40:10.584Z,12.93
2023-03-03T15:42:47.558Z,12.60
2023-03-03T15:45:20.037Z,14.15
2023-03-03T15:48:34.994Z,15.57
2023-03-03T15:51:31.089Z,12.30
2023-03-03T15:54:19.181Z,13.68
2023-03-03T15:56:51.387Z,11.93
2023-03-03T15:59:47.140Z,12.88
2023-03-03T16:02:49.533Z,11.57
2023-03-03T16:05:19.457Z,12.20
2023-03-03T16:08:19.692Z,11.55
2023-03-03T16:11:07.964Z,14.02
2023-03-03T16:13:40.994Z,12.20
2023-03-03T16:16:19.343Z,13.15
2023-03-03T16:19:08.049Z,11.95
2023-03-03T16:21:59.098Z,11.38
2023-03-03T16:24:58.400Z,12.32
2023-03-03T16:27:34.555Z,11.70
2023-03-03T16:30:26.862Z,12.63
2023-03-03T16:33:07.198Z,11.55
2023-03-03T16:35:39.809Z,12.18
2023-03-03T16:38:17.225Z,14.15
2023-03-03T16:40:55.500Z,14.70
2023-03-03T16:43:38.914Z,15.57
2023-03-03T16:46:33.532Z,19.27
2023-03-03T16:49:09.746Z,24.08
2023-03-03T16:51:49.343Z,27.52
2023-03-03T16:54:27.037Z,23.20
2023-03-03T16:57:52.763Z,20.80
2023-03-03T17:00:23.805Z,19.20
2023-03-03T17:03:00.370Z,16.98
2023-03-03T17:05:51.885Z,19.00
2023-03-03T17:08:37.404Z,18.60
2023-03-03T17:11:25.653Z,17.27
2023-03-03T17:14:13.233Z,18.58
2023-03-03T17:16:52.608Z,17.88
2023-03-03T17:19:51.780Z,19.42
2023-03-03T17:22:28.288Z,19.27
2023-03-03T17:25:06.872Z,17.77
2023-03-03T17:27:36.950Z,19.80
2023-03-03T17:32:59.045Z,30.73
2023-03-03T17:35:42.412Z,36.43
2023-03-03T17:38:12.414Z,33.80
2023-03-03T17:43:25.612Z,25.02
2023-03-03T17:45:56.221Z,21.40
2023-03-03T17:49:07.921Z,20.95
2023-03-03T17:52:08.970Z,23.58
2023-03-03T17:55:06.734Z,28.30
2023-03-03T17:57:45.416Z,71.22
2023-03-03T18:00:19.770Z,68.63
2023-03-03T18:03:04.844Z,40.28
2023-03-03T18:05:37.959Z,28.92
2023-03-03T18:08:20.221Z,27.55
2023-03-03T18:11:08.610Z,26.25
2023-03-03T18:13:47.611Z,23.05
2023-03-03T18:16:32.793Z,21.57
2023-03-03T18:19:08.802Z,23.58
2023-03-03T18:21:59.733Z,22.83
2023-03-03T18:24:51.642Z,23.08
2023-03-03T18:27:24.416Z,22.02
2023-03-03T18:30:22.186Z,21.40
2023-03-03T18:32:57.607Z,21.45
2023-03-03T18:35:33.662Z,22.65
2023-03-03T18:38:15.503Z,21.70
2023-03-03T18:40:53.188Z,23.13
2023-03-03T18:43:44.655Z,23.85
2023-03-03T18:46:20.557Z,26.02
2023-03-03T18:49:04.510Z,28.58
2023-03-03T18:51:34.249Z,32.42
2023-03-03T18:54:03.528Z,29.00
2023-03-03T18:56:58.455Z,30.67
2023-03-03T18:59:30.812Z,30.85
2023-03-03T19:02:13.200Z,29.13
2023-03-03T19:04:49.022Z,28.10
2023-03-03T19:07:26.868Z,26.77
2023-03-03T19:10:02.517Z,25.88
2023-03-03T19:12:54.681Z,27.10
2023-03-03T19:15:30.941Z,27.40
2023-03-03T19:18:05.915Z,24.23
2023-03-03T19:20:41.295Z,24.23
2023-03-03T19:23:20.742Z,24.92
2023-03-03T19:26:20.183Z,25.95
2023-03-03T19:29:12.593Z,25.70
2023-03-03T19:31:51.521Z,26.40
2023-03-03T19:34:33.730Z,28.45
2023-03-03T19:37:23.135Z,25.38
2023-03-03T19:39:57.172Z,24.45
2023-03-03T19:43:00.936Z,23.33
2023-03-03T19:45:53.579Z,25.83
2023-03-03T19:48:23.732Z,26.10
2023-03-03T19:51:20.943Z,25.33
2023-03-03T19:53:47.499Z,26.15
2023-03-03T19:56:23.725Z,24.10
2023-03-03T19:59:19.096Z,25.67
2023-03-03T20:02:07.425Z,23.80
2023-03-03T20:04:53.189Z,23.65
2023-03-03T20:07:22.838Z,24.05
2023-03-03T20:10:04.701Z,22.45
2023-03-03T20:12:47.957Z,22.48
2023-03-03T20:15:24.090Z,23.85
2023-03-03T20:18:00.006Z,25.15
2023-03-03T20:20:40.070Z,23.02
2023-03-03T20:23:07.308Z,22.55
2023-03-03T20:25:42.292Z,22.00
2023-03-03T20:28:48.292Z,23.10
2023-03-03T20:31:40.103Z,22.88
2023-03-03T20:34:21.980Z,25.20
2023-03-03T20:37:03.629Z,26.23
2023-03-03T20:40:07.900Z,24.70
2023-03-03T20:42:59.657Z,23.08
2023-03-03T20:45:29.528Z,22.65
2023-03-03T20:48:14.750Z,21.95
2023-03-03T20:50:44.662Z,21.10
2023-03-03T20:53:49.825Z,21.23
2023-03-03T20:56:21.028Z,20.45
2023-03-03T20:58:57.473Z,19.88
2023-03-03T21:01:47.749Z,20.33
2023-03-03T21:04:31.375Z,21.10
2023-03-03T21:07:01.236Z,20.88
2023-03-03T21:09:32.887Z,20.65
2023-03-03T21:12:01.997Z,20.42
2023-03-03T21:14:31.345Z,20.60
2023-03-03T21:17:02.866Z,20.50
2023-03-03T21:19:32.660Z,20.02
2023-03-03T21:22:02.361Z,18.75
2023-03-03T21:24:47.848Z,20.85
2023-03-03T21:27:28.532Z,21.05
